sensor_id;sensor_type;location;lat;lon;timestamp;pressure;altitude;pressure_sealevel;temperature;humidity
22775;BME280;11554;51.106;3.684;2024-03-17T00:00:00;102194.61;;;7.58;100.0
22775;BME280;11554;51.106;3.684;2024-03-17T00:05:00;102175.06;;;7.59;100.0
22775;BME280;11554;51.106;3.684;2024-03-17T00:10:00;102174.75;;;7.56;100.0
22775;BME280;11554;51.106;3.684;2024-03-17T00:15:00;102171.97;;;7.47;100.0
22775;BME280;11554;51.106;3.684;2024-03-17T00:20:00;102182.89;;;7.38;100.0
22775;BME280;11554;51.106;3.684;2024-03-17T00:25:00;102181.2;;;7.34;100.0
22775;BME280;11554;51.106;3.684;2024-03-17T00:30:00;102179.90999999999;;;7.33;100.0
22775;BME280;11554;51.106;3.684;2024-03-17T00:35:00;102175.66;;;7.27;100.0
22775;BME280;11554;51.106;3.684;2024-03-17T00:40:00;102177.33;;;7.25;100.0
22775;BME280;11554;51.106;3.684;2024-03-17T00:45:00;102179.88;;;7.27;100.0
22775;BME280;11554;51.106;3.684;2024-03-17T00:50:00;102180.14;;;7.27;100.0
22775;BME280;11554;51.106;3.684;2024-03-17T00:55:00;102174.63;;;7.31;100.0
22775;BME280;11554;51.106;3.684;2024-03-17T01:00:00;102169.42;;;7.33;100.0
22775;BME280;11554;51.106;3.684;2024-03-17T01:05:00;102166.3;;;7.43;100.0
22775;BME280;11554;51.106;3.684;2024-03-17T01:10:00;102157.53;;;7.45;100.0
22775;BME280;11554;51.106;3.684;2024-03-17T01:15:02;102144.84;;;7.43;100.0
22775;BME280;11554;51.106;3.684;2024-03-17T01:20:00;102134.13;;;7.38;100.0
22775;BME280;11554;51.106;3.684;2024-03-17T01:25:00;102132.79;;;7.33;100.0
22775;BME280;11554;51.106;3.684;2024-03-17T01:30:00;102131.97;;;7.31;100.0
22775;BME280;11554;51.106;3.684;2024-03-17T01:35:00;102122.61;;;7.24;100.0
22775;BME280;11554;51.106;3.684;2024-03-17T01:40:00;102121.3;;;7.23;100.0
22775;BME280;11554;51.106;3.684;2024-03-17T01:45:00;102116.27;;;7.27;100.0
22775;BME280;11554;51.106;3.684;2024-03-17T01:50:00;102111.14;;;7.27;100.0
22775;BME280;11554;51.106;3.684;2024-03-17T01:55:00;102105.24;;;7.39;100.0
22775;BME280;11554;51.106;3.684;2024-03-17T02:00:00;102096.57999999999;;;7.45;100.0
22775;BME280;11554;51.106;3.684;2024-03-17T02:05:00;102091.24;;;7.44;100.0
22775;BME280;11554;51.106;3.684;2024-03-17T02:10:00;102086.0;;;7.44;100.0
22775;BME280;11554;51.106;3.684;2024-03-17T02:15:00;102076.03;;;7.44;100.0
22775;BME280;11554;51.106;3.684;2024-03-17T02:20:00;102077.57;;;7.39;100.0
22775;BME280;11554;51.106;3.684;2024-03-17T02:25:00;102072.04000000001;;;7.35;100.0
22775;BME280;11554;51.106;3.684;2024-03-17T02:30:00;102066.09;;;7.34;100.0
22775;BME280;11554;51.106;3.684;2024-03-17T02:35:00;102061.5;;;7.32;100.0
22775;BME280;11554;51.106;3.684;2024-03-17T02:40:00;102046.65;;;7.25;100.0
22775;BME280;11554;51.106;3.684;2024-03-17T02:45:00;102040.73;;;7.21;100.0
22775;BME280;11554;51.106;3.684;2024-03-17T02:50:00;102033.18000000001;;;7.15;100.0
22775;BME280;11554;51.106;3.684;2024-03-17T02:55:00;102036.47;;;7.11;100.0
22775;BME280;11554;51.106;3.684;2024-03-17T03:00:00;102033.36;;;7.04;100.0
22775;BME280;11554;51.106;3.684;2024-03-17T03:05:00;102031.12;;;7.08;100.0
22775;BME280;11554;51.106;3.684;2024-03-17T03:10:00;102026.42;;;7.09;100.0
22775;BME280;11554;51.106;3.684;2024-03-17T03:15:00;102022.61;;;7.07;100.0
22775;BME280;11554;51.106;3.684;2024-03-17T03:20:00;102017.92;;;7.06;100.0
22775;BME280;11554;51.106;3.684;2024-03-17T03:25:00;102015.3;;;7.08;100.0
22775;BME280;11554;51.106;3.684;2024-03-17T03:30:00;102002.33;;;7.12;100.0
22775;BME280;11554;51.106;3.684;2024-03-17T03:35:00;101998.97;;;7.11;100.0
22775;BME280;11554;51.106;3.684;2024-03-17T03:40:00;101994.56;;;7.05;100.0
22775;BME280;11554;51.106;3.684;2024-03-17T03:45:00;101989.33;;;6.94;100.0
22775;BME280;11554;51.106;3.684;2024-03-17T03:50:00;101988.64;;;6.85;100.0
22775;BME280;11554;51.106;3.684;2024-03-17T03:55:00;101990.39;;;6.74;100.0
22775;BME280;11554;51.106;3.684;2024-03-17T04:00:00;101987.48000000001;;;6.62;100.0
22775;BME280;11554;51.106;3.684;2024-03-17T04:05:00;101980.79000000001;;;6.56;100.0
22775;BME280;11554;51.106;3.684;2024-03-17T04:10:00;101977.28;;;6.60;100.0
22775;BME280;11554;51.106;3.684;2024-03-17T04:15:00;101974.78;;;6.62;100.0
22775;BME280;11554;51.106;3.684;2024-03-17T04:20:00;101973.19;;;6.50;100.0
22775;BME280;11554;51.106;3.684;2024-03-17T04:25:00;101969.72;;;6.46;100.0
22775;BME280;11554;51.106;3.684;2024-03-17T04:30:00;101967.90999999999;;;6.43;100.0
22775;BME280;11554;51.106;3.684;2024-03-17T04:35:00;101966.27;;;6.42;100.0
22775;BME280;11554;51.106;3.684;2024-03-17T04:40:00;101961.99;;;6.45;100.0
22775;BME280;11554;51.106;3.684;2024-03-17T04:45:00;101952.34;;;6.49;100.0
22775;BME280;11554;51.106;3.684;2024-03-17T04:50:00;101951.78;;;6.48;100.0
22775;BME280;11554;51.106;3.684;2024-03-17T04:55:00;101961.56;;;6.53;100.0
22775;BME280;11554;51.106;3.684;2024-03-17T05:00:00;101958.26;;;6.56;100.0
22775;BME280;11554;51.106;3.684;2024-03-17T05:05:00;101951.28;;;6.59;100.0
22775;BME280;11554;51.106;3.684;2024-03-17T05:10:00;101951.36;;;6.65;100.0
22775;BME280;11554;51.106;3.684;2024-03-17T05:15:00;101948.51999999999;;;6.71;100.0
22775;BME280;11554;51.106;3.684;2024-03-17T05:20:00;101946.77;;;6.75;100.0
22775;BME280;11554;51.106;3.684;2024-03-17T05:25:00;101951.62;;;6.82;100.0
22775;BME280;11554;51.106;3.684;2024-03-17T05:30:00;101948.63;;;6.87;100.0
22775;BME280;11554;51.106;3.684;2024-03-17T05:35:00;101949.8;;;6.92;100.0
22775;BME280;11554;51.106;3.684;2024-03-17T05:40:00;101952.67;;;6.93;100.0
22775;BME280;11554;51.106;3.684;2024-03-17T05:45:00;101948.63;;;6.97;100.0
22775;BME280;11554;51.106;3.684;2024-03-17T05:50:00;101951.95;;;7.01;100.0
22775;BME280;11554;51.106;3.684;2024-03-17T05:55:00;101947.01;;;7.06;100.0
22775;BME280;11554;51.106;3.684;2024-03-17T06:00:00;101953.74;;;7.22;100.0
22775;BME280;11554;51.106;3.684;2024-03-17T06:05:00;101948.03;;;7.31;100.0
22775;BME280;11554;51.106;3.684;2024-03-17T06:10:00;101943.2;;;7.32;100.0
22775;BME280;11554;51.106;3.684;2024-03-17T06:15:01;101945.01000000001;;;7.39;100.0
22775;BME280;11554;51.106;3.684;2024-03-17T06:20:00;101939.36;;;7.45;100.0
22775;BME280;11554;51.106;3.684;2024-03-17T06:25:00;101936.32;;;7.51;100.0
22775;BME280;11554;51.106;3.684;2024-03-17T06:30:00;101938.42;;;7.58;100.0
22775;BME280;11554;51.106;3.684;2024-03-17T06:35:01;101937.15999999999;;;7.65;100.0
22775;BME280;11554;51.106;3.684;2024-03-17T06:40:00;101941.45999999999;;;7.74;100.0
22775;BME280;11554;51.106;3.684;2024-03-17T06:45:00;101943.52;;;7.80;100.0
22775;BME280;11554;51.106;3.684;2024-03-17T06:50:00;101946.27;;;7.89;100.0
22775;BME280;11554;51.106;3.684;2024-03-17T06:55:00;101948.77;;;8.00;100.0
22775;BME280;11554;51.106;3.684;2024-03-17T07:00:00;101939.20000000001;;;8.10;100.0
22775;BME280;11554;51.106;3.684;2024-03-17T07:05:00;101944.55;;;8.19;100.0
22775;BME280;11554;51.106;3.684;2024-03-17T07:10:00;101948.06999999999;;;8.31;100.0
22775;BME280;11554;51.106;3.684;2024-03-17T07:15:00;101948.43;;;8.46;100.0
22775;BME280;11554;51.106;3.684;2024-03-17T07:20:00;101955.83;;;8.64;100.0
22775;BME280;11554;51.106;3.684;2024-03-17T07:25:00;101957.59000000001;;;8.72;100.0
22775;BME280;11554;51.106;3.684;2024-03-17T07:30:00;101958.45000000001;;;8.73;100.0
22775;BME280;11554;51.106;3.684;2024-03-17T07:35:00;101960.74;;;8.77;100.0
22775;BME280;11554;51.106;3.684;2024-03-17T07:40:00;101966.18;;;8.83;100.0
22775;BME280;11554;51.106;3.684;2024-03-17T07:45:00;101969.1;;;8.89;100.0
22775;BME280;11554;51.106;3.684;2024-03-17T07:50:00;101968.95;;;9.00;100.0
22775;BME280;11554;51.106;3.684;2024-03-17T07:55:00;101967.58;;;9.05;100.0
22775;BME280;11554;51.106;3.684;2024-03-17T08:00:00;101970.53;;;9.14;100.0
22775;BME280;11554;51.106;3.684;2024-03-17T08:05:00;101968.84;;;9.25;100.0
22775;BME280;11554;51.106;3.684;2024-03-17T08:10:00;101964.03;;;9.40;100.0
22775;BME280;11554;51.106;3.684;2024-03-17T08:15:00;101968.22;;;9.47;100.0
22775;BME280;11554;51.106;3.684;2024-03-17T08:20:00;101966.09;;;9.50;100.0
22775;BME280;11554;51.106;3.684;2024-03-17T08:25:00;101968.12;;;9.49;100.0
22775;BME280;11554;51.106;3.684;2024-03-17T08:30:00;101971.48999999999;;;9.51;100.0
22775;BME280;11554;51.106;3.684;2024-03-17T08:35:00;101966.76999999999;;;9.64;100.0
22775;BME280;11554;51.106;3.684;2024-03-17T08:40:00;101968.5;;;9.84;100.0
22775;BME280;11554;51.106;3.684;2024-03-17T08:45:00;101980.1;;;9.98;100.0
22775;BME280;11554;51.106;3.684;2024-03-17T08:50:00;101977.89;;;10.04;100.0
22775;BME280;11554;51.106;3.684;2024-03-17T08:55:00;101979.66;;;10.11;100.0
22775;BME280;11554;51.106;3.684;2024-03-17T09:00:00;101977.97;;;10.09;100.0
22775;BME280;11554;51.106;3.684;2024-03-17T09:05:00;101978.81;;;10.04;100.0
22775;BME280;11554;51.106;3.684;2024-03-17T09:10:00;101982.68000000001;;;10.06;100.0
22775;BME280;11554;51.106;3.684;2024-03-17T09:15:00;101977.94;;;10.05;100.0
22775;BME280;11554;51.106;3.684;2024-03-17T09:20:00;101978.42000000001;;;10.12;100.0
22775;BME280;11554;51.106;3.684;2024-03-17T09:25:00;101981.48;;;10.19;100.0
22775;BME280;11554;51.106;3.684;2024-03-17T09:30:00;101983.01;;;10.26;100.0
22775;BME280;11554;51.106;3.684;2024-03-17T09:35:00;101978.83;;;10.30;100.0
22775;BME280;11554;51.106;3.684;2024-03-17T09:40:00;101977.34;;;10.23;100.0
22775;BME280;11554;51.106;3.684;2024-03-17T09:45:00;101975.66;;;10.42;100.0
22775;BME280;11554;51.106;3.684;2024-03-17T09:50:00;101977.4;;;10.68;100.0
22775;BME280;11554;51.106;3.684;2024-03-17T09:55:01;101972.72;;;10.83;100.0
22775;BME280;11554;51.106;3.684;2024-03-17T10:00:00;101977.62;;;10.96;100.0
22775;BME280;11554;51.106;3.684;2024-03-17T10:05:00;101971.13;;;11.12;100.0
22775;BME280;11554;51.106;3.684;2024-03-17T10:10:10;101967.6;;;11.35;100.0
22775;BME280;11554;51.106;3.684;2024-03-17T10:15:00;101957.89;;;11.48;100.0
22775;BME280;11554;51.106;3.684;2024-03-17T10:25:00;101939.12;;;11.77;100.0
22775;BME280;11554;51.106;3.684;2024-03-17T10:30:00;101926.29;;;11.85;100.0
22775;BME280;11554;51.106;3.684;2024-03-17T10:35:00;101929.8;;;12.32;100.0
22775;BME280;11554;51.106;3.684;2024-03-17T10:40:00;101911.67;;;12.63;100.0
22775;BME280;11554;51.106;3.684;2024-03-17T10:45:00;101899.7;;;13.13;100.0
22775;BME280;11554;51.106;3.684;2024-03-17T10:50:00;101885.46;;;13.48;100.0
22775;BME280;11554;51.106;3.684;2024-03-17T10:55:01;101879.03;;;13.36;100.0
22775;BME280;11554;51.106;3.684;2024-03-17T11:00:00;101882.09000000001;;;13.51;100.0
22775;BME280;11554;51.106;3.684;2024-03-17T11:05:01;101873.94;;;13.83;100.0
22775;BME280;11554;51.106;3.684;2024-03-17T11:10:00;101863.28;;;13.88;100.0
22775;BME280;11554;51.106;3.684;2024-03-17T11:40:00;101833.67;;;15.38;100.0
22775;BME280;11554;51.106;3.684;2024-03-17T11:45:01;101823.0;;;15.73;100.0
22775;BME280;11554;51.106;3.684;2024-03-17T11:50:01;101816.0;;;16.19;100.0
22775;BME280;11554;51.106;3.684;2024-03-17T11:55:00;101815.59;;;15.95;100.0
22775;BME280;11554;51.106;3.684;2024-03-17T12:00:00;101806.04;;;15.77;100.0
22775;BME280;11554;51.106;3.684;2024-03-17T12:05:00;101796.2;;;15.59;100.0
22775;BME280;11554;51.106;3.684;2024-03-17T12:10:00;101795.45000000001;;;15.60;100.0
22775;BME280;11554;51.106;3.684;2024-03-17T12:15:00;101790.03;;;15.69;100.0
22775;BME280;11554;51.106;3.684;2024-03-17T12:20:00;101781.87000000001;;;15.81;100.0
22775;BME280;11554;51.106;3.684;2024-03-17T12:25:00;101777.37;;;16.00;100.0
22775;BME280;11554;51.106;3.684;2024-03-17T12:30:00;101767.22;;;16.26;100.0
22775;BME280;11554;51.106;3.684;2024-03-17T12:35:00;101758.8;;;16.38;100.0
22775;BME280;11554;51.106;3.684;2024-03-17T12:40:00;101749.59;;;16.19;100.0
22775;BME280;11554;51.106;3.684;2024-03-17T12:45:00;101744.08;;;16.18;100.0
22775;BME280;11554;51.106;3.684;2024-03-17T12:50:01;101734.77;;;16.30;100.0
22775;BME280;11554;51.106;3.684;2024-03-17T12:55:00;101724.59;;;16.24;100.0
22775;BME280;11554;51.106;3.684;2024-03-17T13:00:00;101727.04;;;16.53;100.0
22775;BME280;11554;51.106;3.684;2024-03-17T13:05:10;101715.59;;;16.52;100.0
22775;BME280;11554;51.106;3.684;2024-03-17T13:10:00;101714.34000000001;;;16.47;100.0
22775;BME280;11554;51.106;3.684;2024-03-17T13:15:00;101707.37000000001;;;16.14;100.0
22775;BME280;11554;51.106;3.684;2024-03-17T13:20:00;101707.1;;;16.00;100.0
22775;BME280;11554;51.106;3.684;2024-03-17T13:25:00;101698.83;;;16.03;100.0
22775;BME280;11554;51.106;3.684;2024-03-17T13:30:00;101690.09;;;16.10;100.0
22775;BME280;11554;51.106;3.684;2024-03-17T13:35:00;101686.25;;;16.07;100.0
22775;BME280;11554;51.106;3.684;2024-03-17T13:40:00;101680.88;;;16.07;100.0
22775;BME280;11554;51.106;3.684;2024-03-17T13:45:00;101677.51;;;15.93;100.0
22775;BME280;11554;51.106;3.684;2024-03-17T13:50:00;101677.12;;;15.93;100.0
22775;BME280;11554;51.106;3.684;2024-03-17T13:55:00;101679.03;;;15.61;100.0
22775;BME280;11554;51.106;3.684;2024-03-17T14:00:00;101680.39;;;15.26;100.0
22775;BME280;11554;51.106;3.684;2024-03-17T14:05:00;101679.36;;;15.25;100.0
22775;BME280;11554;51.106;3.684;2024-03-17T14:10:00;101675.09;;;15.22;100.0
22775;BME280;11554;51.106;3.684;2024-03-17T14:15:00;101675.59;;;15.03;100.0
22775;BME280;11554;51.106;3.684;2024-03-17T14:20:00;101665.31;;;14.95;100.0
22775;BME280;11554;51.106;3.684;2024-03-17T14:25:00;101668.55;;;14.79;100.0
22775;BME280;11554;51.106;3.684;2024-03-17T14:30:00;101657.62;;;14.67;100.0
22775;BME280;11554;51.106;3.684;2024-03-17T14:35:00;101649.06;;;14.59;100.0
22775;BME280;11554;51.106;3.684;2024-03-17T14:40:00;101649.53;;;14.60;100.0
22775;BME280;11554;51.106;3.684;2024-03-17T14:45:00;101645.81;;;14.54;100.0
22775;BME280;11554;51.106;3.684;2024-03-17T14:50:00;101643.8;;;14.42;100.0
22775;BME280;11554;51.106;3.684;2024-03-17T14:55:00;101642.04999999999;;;14.33;100.0
22775;BME280;11554;51.106;3.684;2024-03-17T15:00:00;101638.11;;;14.26;100.0
22775;BME280;11554;51.106;3.684;2024-03-17T15:05:00;101627.81;;;14.17;100.0
22775;BME280;11554;51.106;3.684;2024-03-17T15:10:00;101620.97;;;14.03;100.0
22775;BME280;11554;51.106;3.684;2024-03-17T15:15:00;101614.57;;;14.03;100.0
22775;BME280;11554;51.106;3.684;2024-03-17T15:20:00;101620.84;;;13.77;100.0
22775;BME280;11554;51.106;3.684;2024-03-17T15:25:00;101622.17000000001;;;13.58;100.0
22775;BME280;11554;51.106;3.684;2024-03-17T15:30:00;101624.13;;;13.52;100.0
22775;BME280;11554;51.106;3.684;2024-03-17T15:35:00;101631.62;;;13.48;100.0
22775;BME280;11554;51.106;3.684;2024-03-17T15:40:00;101633.65;;;13.41;100.0
22775;BME280;11554;51.106;3.684;2024-03-17T15:45:00;101631.95;;;13.38;100.0
22775;BME280;11554;51.106;3.684;2024-03-17T15:50:00;101629.69;;;13.30;100.0
22775;BME280;11554;51.106;3.684;2024-03-17T15:55:00;101628.99;;;13.20;100.0
22775;BME280;11554;51.106;3.684;2024-03-17T16:00:00;101632.79;;;13.16;100.0
22775;BME280;11554;51.106;3.684;2024-03-17T16:05:00;101634.55;;;13.11;100.0
22775;BME280;11554;51.106;3.684;2024-03-17T16:10:00;101626.58;;;13.06;100.0
22775;BME280;11554;51.106;3.684;2024-03-17T16:15:00;101628.66;;;12.98;100.0
22775;BME280;11554;51.106;3.684;2024-03-17T16:20:00;101622.66;;;12.86;100.0
22775;BME280;11554;51.106;3.684;2024-03-17T16:25:00;101631.78;;;12.77;100.0
22775;BME280;11554;51.106;3.684;2024-03-17T16:30:00;101633.5;;;12.67;100.0
22775;BME280;11554;51.106;3.684;2024-03-17T16:35:00;101637.55;;;12.59;100.0
22775;BME280;11554;51.106;3.684;2024-03-17T16:40:00;101639.87;;;12.50;100.0
22775;BME280;11554;51.106;3.684;2024-03-17T16:45:03;101642.22;;;12.48;100.0
22775;BME280;11554;51.106;3.684;2024-03-17T16:50:01;101645.54000000001;;;12.40;100.0
22775;BME280;11554;51.106;3.684;2024-03-17T16:55:00;101640.88;;;12.32;100.0
22775;BME280;11554;51.106;3.684;2024-03-17T17:00:00;101637.23;;;12.26;100.0
22775;BME280;11554;51.106;3.684;2024-03-17T17:05:00;101643.91;;;12.23;100.0
22775;BME280;11554;51.106;3.684;2024-03-17T17:10:00;101646.09;;;12.19;100.0
22775;BME280;11554;51.106;3.684;2024-03-17T17:15:00;101647.48;;;12.16;100.0
22775;BME280;11554;51.106;3.684;2024-03-17T17:20:00;101649.77;;;12.09;100.0
22775;BME280;11554;51.106;3.684;2024-03-17T17:25:00;101647.11;;;12.06;100.0
22775;BME280;11554;51.106;3.684;2024-03-17T17:30:00;101644.5;;;12.03;100.0
22775;BME280;11554;51.106;3.684;2024-03-17T17:35:00;101646.8;;;12.00;100.0
22775;BME280;11554;51.106;3.684;2024-03-17T17:40:00;101654.63;;;11.98;100.0
22775;BME280;11554;51.106;3.684;2024-03-17T17:45:00;101653.51000000001;;;11.93;100.0
22775;BME280;11554;51.106;3.684;2024-03-17T17:50:00;101652.37;;;11.90;100.0
22775;BME280;11554;51.106;3.684;2024-03-17T17:55:00;101658.56999999999;;;11.88;100.0
22775;BME280;11554;51.106;3.684;2024-03-17T18:00:00;101658.54000000001;;;11.85;100.0
22775;BME280;11554;51.106;3.684;2024-03-17T18:05:00;101659.14;;;11.84;100.0
22775;BME280;11554;51.106;3.684;2024-03-17T18:10:00;101655.88;;;11.82;100.0
22775;BME280;11554;51.106;3.684;2024-03-17T18:15:00;101659.31;;;11.82;100.0
22775;BME280;11554;51.106;3.684;2024-03-17T18:20:00;101661.84;;;11.80;100.0
22775;BME280;11554;51.106;3.684;2024-03-17T18:25:00;101669.53;;;11.79;100.0
22775;BME280;11554;51.106;3.684;2024-03-17T18:30:00;101666.63;;;11.77;100.0
22775;BME280;11554;51.106;3.684;2024-03-17T18:35:00;101668.43000000001;;;11.76;100.0
22775;BME280;11554;51.106;3.684;2024-03-17T18:40:00;101675.41;;;11.75;100.0
22775;BME280;11554;51.106;3.684;2024-03-17T18:45:00;101677.92;;;11.74;100.0
22775;BME280;11554;51.106;3.684;2024-03-17T18:50:00;101679.31999999999;;;11.72;100.0
22775;BME280;11554;51.106;3.684;2024-03-17T18:55:00;101688.67;;;11.72;100.0
22775;BME280;11554;51.106;3.684;2024-03-17T19:00:00;101695.58;;;11.69;100.0
22775;BME280;11554;51.106;3.684;2024-03-17T19:05:00;101693.06;;;11.68;100.0
22775;BME280;11554;51.106;3.684;2024-03-17T19:10:00;101693.45;;;11.69;100.0
22775;BME280;11554;51.106;3.684;2024-03-17T19:15:00;101698.51999999999;;;11.69;100.0
22775;BME280;11554;51.106;3.684;2024-03-17T19:20:00;101695.29;;;11.68;100.0
22775;BME280;11554;51.106;3.684;2024-03-17T19:25:00;101692.16;;;11.66;100.0
22775;BME280;11554;51.106;3.684;2024-03-17T19:30:00;101692.31;;;11.65;100.0
22775;BME280;11554;51.106;3.684;2024-03-17T19:35:00;101692.16;;;11.65;100.0
22775;BME280;11554;51.106;3.684;2024-03-17T19:40:00;101686.6;;;11.63;100.0
22775;BME280;11554;51.106;3.684;2024-03-17T19:45:00;101693.05;;;11.63;100.0
22775;BME280;11554;51.106;3.684;2024-03-17T19:50:00;101689.87;;;11.62;100.0
22775;BME280;11554;51.106;3.684;2024-03-17T19:55:00;101690.36;;;11.63;100.0
22775;BME280;11554;51.106;3.684;2024-03-17T20:00:00;101688.53;;;11.60;100.0
22775;BME280;11554;51.106;3.684;2024-03-17T20:05:00;101688.49;;;11.47;100.0
22775;BME280;11554;51.106;3.684;2024-03-17T20:10:00;101688.01;;;11.36;100.0
22775;BME280;11554;51.106;3.684;2024-03-17T20:15:00;101685.86;;;11.23;100.0
22775;BME280;11554;51.106;3.684;2024-03-17T20:20:00;101685.67;;;11.07;100.0
22775;BME280;11554;51.106;3.684;2024-03-17T20:25:00;101685.61;;;10.94;100.0
22775;BME280;11554;51.106;3.684;2024-03-17T20:30:00;101691.61;;;10.82;100.0
22775;BME280;11554;51.106;3.684;2024-03-17T20:35:00;101686.53;;;10.73;100.0
22775;BME280;11554;51.106;3.684;2024-03-17T20:40:00;101688.72;;;10.69;100.0
22775;BME280;11554;51.106;3.684;2024-03-17T20:45:01;101689.9;;;10.72;100.0
22775;BME280;11554;51.106;3.684;2024-03-17T20:50:00;101688.39;;;10.69;100.0
22775;BME280;11554;51.106;3.684;2024-03-17T20:55:00;101695.39;;;10.73;100.0
22775;BME280;11554;51.106;3.684;2024-03-17T21:00:00;101694.86;;;10.72;100.0
22775;BME280;11554;51.106;3.684;2024-03-17T21:05:00;101695.73000000001;;;10.66;100.0
22775;BME280;11554;51.106;3.684;2024-03-17T21:10:00;101693.55;;;10.55;100.0
22775;BME280;11554;51.106;3.684;2024-03-17T21:15:00;101691.61;;;10.47;100.0
22775;BME280;11554;51.106;3.684;2024-03-17T21:20:00;101685.61;;;10.38;100.0
22775;BME280;11554;51.106;3.684;2024-03-17T21:25:00;101687.45;;;10.33;100.0
22775;BME280;11554;51.106;3.684;2024-03-17T21:30:00;101683.42;;;10.28;100.0
22775;BME280;11554;51.106;3.684;2024-03-17T21:35:00;101672.28;;;10.17;100.0
22775;BME280;11554;51.106;3.684;2024-03-17T21:40:00;101665.25;;;10.05;100.0
22775;BME280;11554;51.106;3.684;2024-03-17T21:45:00;101670.64;;;9.82;100.0
22775;BME280;11554;51.106;3.684;2024-03-17T21:50:00;101673.33;;;9.72;100.0
22775;BME280;11554;51.106;3.684;2024-03-17T21:55:00;101667.94;;;9.65;100.0
22775;BME280;11554;51.106;3.684;2024-03-17T22:00:00;101667.48999999999;;;9.53;100.0
22775;BME280;11554;51.106;3.684;2024-03-17T22:05:00;101664.14;;;9.47;100.0
22775;BME280;11554;51.106;3.684;2024-03-17T22:10:00;101668.26999999999;;;9.43;100.0
22775;BME280;11554;51.106;3.684;2024-03-17T22:15:00;101671.39;;;9.38;100.0
22775;BME280;11554;51.106;3.684;2024-03-17T22:20:01;101672.38;;;9.30;100.0
22775;BME280;11554;51.106;3.684;2024-03-17T22:25:00;101671.57999999999;;;9.19;100.0
22775;BME280;11554;51.106;3.684;2024-03-17T22:30:00;101661.06;;;9.11;100.0
22775;BME280;11554;51.106;3.684;2024-03-17T22:35:00;101662.61;;;9.01;100.0
22775;BME280;11554;51.106;3.684;2024-03-17T22:40:00;101658.15;;;8.98;100.0
22775;BME280;11554;51.106;3.684;2024-03-17T22:45:00;101658.87;;;8.91;100.0
22775;BME280;11554;51.106;3.684;2024-03-17T22:50:00;101652.55;;;8.79;100.0
22775;BME280;11554;51.106;3.684;2024-03-17T22:55:00;101650.21;;;8.80;100.0
22775;BME280;11554;51.106;3.684;2024-03-17T23:00:00;101660.51999999999;;;8.89;100.0
22775;BME280;11554;51.106;3.684;2024-03-17T23:05:00;101667.74;;;8.95;100.0
22775;BME280;11554;51.106;3.684;2024-03-17T23:10:00;101666.66;;;8.98;100.0
22775;BME280;11554;51.106;3.684;2024-03-17T23:15:00;101667.36;;;8.89;100.0
22775;BME280;11554;51.106;3.684;2024-03-17T23:20:00;101670.98;;;8.93;100.0
22775;BME280;11554;51.106;3.684;2024-03-17T23:25:01;101664.03;;;8.85;100.0
22775;BME280;11554;51.106;3.684;2024-03-17T23:30:00;101667.69;;;8.74;100.0
22775;BME280;11554;51.106;3.684;2024-03-17T23:35:00;101664.4;;;8.72;100.0
22775;BME280;11554;51.106;3.684;2024-03-17T23:40:00;101664.5;;;8.71;100.0
22775;BME280;11554;51.106;3.684;2024-03-17T23:45:02;101665.99;;;8.64;100.0
22775;BME280;11554;51.106;3.684;2024-03-17T23:50:00;101662.79;;;8.63;100.0
22775;BME280;11554;51.106;3.684;2024-03-17T23:55:00;101659.52;;;8.52;100.0
